createdAt,value
2023-06-10T00:00:16.653Z,19.66
2023-06-10T00:01:50.714Z,19.66
2023-06-10T00:03:24.317Z,19.67
2023-06-10T00:05:01.599Z,19.69
2023-06-10T00:06:35.043Z,19.70
2023-06-10T00:08:08.225Z,19.73
2023-06-10T00:09:42.418Z,19.74
2023-06-10T00:11:24.525Z,19.75
2023-06-10T00:13:01.036Z,19.77
2023-06-10T00:14:40.314Z,19.76
2023-06-10T00:16:15.073Z,19.75
2023-06-10T00:17:52.262Z,19.74
2023-06-10T00:19:27.168Z,19.74
2023-06-10T00:21:00.523Z,19.76
2023-06-10T00:22:33.917Z,19.77
2023-06-10T00:24:09.236Z,19.78
2023-06-10T00:25:42.457Z,19.79
2023-06-10T00:27:15.680Z,19.81
2023-06-10T00:28:50.010Z,19.83
2023-06-10T00:30:23.540Z,19.81
2023-06-10T00:31:57.999Z,19.80
2023-06-10T00:33:32.256Z,19.81
2023-06-10T00:35:07.546Z,19.82
2023-06-10T00:36:41.055Z,19.80
2023-06-10T00:38:15.710Z,19.82
2023-06-10T00:39:50.331Z,19.80
2023-06-10T00:41:30.979Z,19.81
2023-06-10T00:43:04.049Z,19.75
2023-06-10T00:44:47.759Z,19.72
2023-06-10T00:46:22.997Z,19.70
2023-06-10T00:47:57.543Z,19.69
2023-06-10T00:49:30.851Z,19.66
2023-06-10T00:51:09.563Z,19.66
2023-06-10T00:52:44.765Z,19.61
2023-06-10T00:54:19.167Z,19.58
2023-06-10T00:55:52.848Z,19.50
2023-06-10T00:57:27.057Z,19.52
2023-06-10T00:59:00.481Z,19.51
2023-06-10T01:00:35.722Z,19.49
2023-06-10T01:02:11.245Z,19.51
2023-06-10T01:03:46.196Z,19.50
2023-06-10T01:05:23.245Z,19.50
2023-06-10T01:07:33.669Z,19.48
2023-06-10T01:09:35.133Z,19.49
2023-06-10T01:11:20.620Z,19.49
2023-06-10T01:13:00.828Z,19.50
2023-06-10T01:14:33.940Z,19.51
2023-06-10T01:16:07.247Z,19.51
2023-06-10T01:18:00.529Z,19.55
2023-06-10T01:19:37.251Z,19.54
2023-06-10T01:21:20.950Z,19.56
2023-06-10T01:22:55.974Z,19.58
2023-06-10T01:24:30.006Z,19.55
2023-06-10T01:26:11.679Z,19.59
2023-06-10T01:27:50.806Z,19.62
2023-06-10T01:29:37.766Z,19.63
2023-06-10T01:31:49.626Z,19.62
2023-06-10T01:33:40.467Z,19.62
2023-06-10T01:35:14.877Z,19.62
2023-06-10T01:36:50.651Z,19.62
2023-06-10T01:38:28.375Z,19.62
2023-06-10T01:40:03.250Z,19.62
2023-06-10T01:41:37.571Z,19.63
2023-06-10T01:43:10.848Z,19.63
2023-06-10T01:44:47.934Z,19.64
2023-06-10T01:46:21.340Z,19.65
2023-06-10T01:47:55.416Z,19.65
2023-06-10T01:49:28.496Z,19.65
2023-06-10T01:51:02.731Z,19.65
2023-06-10T01:52:37.946Z,19.67
2023-06-10T01:54:12.213Z,19.67
2023-06-10T01:55:45.523Z,19.65
2023-06-10T01:57:19.497Z,19.66
2023-06-10T01:58:52.578Z,19.64
2023-06-10T02:00:25.865Z,19.67
2023-06-10T02:02:00.336Z,19.67
2023-06-10T02:03:33.449Z,19.68
2023-06-10T02:05:07.236Z,19.66
2023-06-10T02:06:41.001Z,19.67
2023-06-10T02:08:15.629Z,19.66
2023-06-10T02:09:48.722Z,19.65
2023-06-10T02:11:24.734Z,19.65
2023-06-10T02:12:58.983Z,19.65
2023-06-10T02:14:38.588Z,19.65
2023-06-10T02:16:13.359Z,19.64
2023-06-10T02:17:48.564Z,19.62
2023-06-10T02:19:26.080Z,19.61
2023-06-10T02:20:59.852Z,19.59
2023-06-10T02:22:33.119Z,19.59
2023-06-10T02:24:07.669Z,19.60
2023-06-10T02:25:44.648Z,19.60
2023-06-10T02:27:23.207Z,19.60
2023-06-10T02:28:57.718Z,19.59
2023-06-10T02:30:34.074Z,19.58
2023-06-10T02:32:11.904Z,19.58
2023-06-10T02:33:51.238Z,19.59
2023-06-10T02:35:26.352Z,19.60
2023-06-10T02:37:04.035Z,19.61
2023-06-10T02:38:41.441Z,19.61
2023-06-10T02:40:21.085Z,19.62
2023-06-10T02:41:57.264Z,19.62
2023-06-10T02:43:31.721Z,19.62
2023-06-10T02:45:10.127Z,19.63
2023-06-10T02:46:45.418Z,19.62
2023-06-10T02:48:28.383Z,19.62
2023-06-10T02:50:09.325Z,19.62
2023-06-10T02:51:47.438Z,19.61
2023-06-10T02:53:20.846Z,19.59
2023-06-10T02:54:56.831Z,19.60
2023-06-10T02:56:34.056Z,19.60
2023-06-10T02:58:07.476Z,19.60
2023-06-10T02:59:41.489Z,19.62
2023-06-10T03:01:21.064Z,19.63
2023-06-10T03:02:54.641Z,19.62
2023-06-10T03:04:30.281Z,19.63
2023-06-10T03:06:10.918Z,19.65
2023-06-10T03:07:47.116Z,19.65
2023-06-10T03:09:26.919Z,19.63
2023-06-10T03:11:00.446Z,19.60
2023-06-10T03:12:35.968Z,19.61
2023-06-10T03:14:15.079Z,19.64
2023-06-10T03:15:52.068Z,19.65
2023-06-10T03:17:29.156Z,19.65
2023-06-10T03:19:05.504Z,19.68
2023-06-10T03:20:39.124Z,19.67
2023-06-10T03:22:25.663Z,19.73
2023-06-10T03:23:59.643Z,19.74
2023-06-10T03:25:35.387Z,19.74
2023-06-10T03:27:11.814Z,19.76
2023-06-10T03:28:48.810Z,19.78
2023-06-10T03:30:28.068Z,19.79
2023-06-10T03:32:07.845Z,19.79
2023-06-10T03:33:44.340Z,19.81
2023-06-10T03:35:17.590Z,19.82
2023-06-10T03:36:51.825Z,19.81
2023-06-10T03:38:31.725Z,19.83
2023-06-10T03:40:06.492Z,19.83
2023-06-10T03:41:40.564Z,19.82
2023-06-10T03:43:16.427Z,19.82
2023-06-10T03:44:57.103Z,19.85
2023-06-10T03:46:40.072Z,19.85
2023-06-10T03:48:14.633Z,19.88
2023-06-10T03:49:49.597Z,19.89
2023-06-10T03:51:28.104Z,19.90
2023-06-10T03:53:02.182Z,19.90
2023-06-10T03:54:36.499Z,19.89
2023-06-10T03:56:10.738Z,19.91
2023-06-10T03:57:46.690Z,19.91
2023-06-10T03:59:20.429Z,19.92
2023-06-10T04:00:56.871Z,19.92
2023-06-10T04:02:33.555Z,19.95
2023-06-10T04:04:11.025Z,19.96
2023-06-10T04:05:46.372Z,19.98
2023-06-10T04:07:27.350Z,20.00
2023-06-10T04:09:05.226Z,19.99
2023-06-10T04:10:40.910Z,20.01
2023-06-10T04:12:18.399Z,20.04
2023-06-10T04:14:01.266Z,20.05
2023-06-10T04:15:34.427Z,20.04
2023-06-10T04:17:10.869Z,20.04
2023-06-10T04:18:45.002Z,20.06
2023-06-10T04:20:20.592Z,20.07
2023-06-10T04:21:56.861Z,20.06
2023-06-10T04:23:30.310Z,20.07
2023-06-10T04:25:05.696Z,20.06
2023-06-10T04:26:39.191Z,20.06
2023-06-10T04:28:12.812Z,20.09
2023-06-10T04:29:49.271Z,20.11
2023-06-10T04:31:23.148Z,20.11
2023-06-10T04:32:59.989Z,20.11
2023-06-10T04:34:34.829Z,20.15
2023-06-10T04:36:10.034Z,20.16
2023-06-10T04:37:44.549Z,20.17
2023-06-10T04:39:21.956Z,20.20
2023-06-10T04:40:59.512Z,20.20
2023-06-10T04:42:33.476Z,20.22
2023-06-10T04:44:10.153Z,20.26
2023-06-10T04:45:43.824Z,20.30
2023-06-10T04:47:22.961Z,20.34
2023-06-10T04:48:57.724Z,20.39
2023-06-10T04:50:32.694Z,20.43
2023-06-10T04:52:08.990Z,20.48
2023-06-10T04:53:45.268Z,20.50
2023-06-10T04:55:18.552Z,20.53
2023-06-10T04:56:55.095Z,20.54
2023-06-10T04:58:30.319Z,20.55
2023-06-10T05:00:05.058Z,20.57
2023-06-10T05:01:44.669Z,20.54
2023-06-10T05:03:22.111Z,20.52
2023-06-10T05:05:00.338Z,20.50
2023-06-10T05:06:36.291Z,20.50
2023-06-10T05:08:12.282Z,20.52
2023-06-10T05:09:45.517Z,20.54
2023-06-10T05:11:18.891Z,20.57
2023-06-10T05:12:52.519Z,20.59
2023-06-10T05:14:28.703Z,20.61
2023-06-10T05:16:05.538Z,20.62
2023-06-10T05:17:46.231Z,20.62
2023-06-10T05:19:21.481Z,20.64
2023-06-10T05:20:59.591Z,20.64
2023-06-10T05:22:32.690Z,20.63
2023-06-10T05:24:07.600Z,20.67
2023-06-10T05:25:43.516Z,20.65
2023-06-10T05:27:19.184Z,20.65
2023-06-10T05:28:57.475Z,20.63
2023-06-10T05:30:37.576Z,20.65
2023-06-10T05:32:15.081Z,20.73
2023-06-10T05:33:48.331Z,20.80
2023-06-10T05:35:24.517Z,20.92
2023-06-10T05:37:00.577Z,21.10
2023-06-10T05:38:37.263Z,21.40
2023-06-10T05:40:11.044Z,21.73
2023-06-10T05:41:46.209Z,22.06
2023-06-10T05:43:23.797Z,22.36
2023-06-10T05:45:02.100Z,22.62
2023-06-10T05:46:38.642Z,22.82
2023-06-10T05:48:11.833Z,22.98
2023-06-10T05:49:45.559Z,23.10
2023-06-10T05:51:23.410Z,23.23
2023-06-10T05:52:56.844Z,23.35
2023-06-10T05:54:33.221Z,23.47
2023-06-10T05:56:10.580Z,23.70
2023-06-10T05:57:45.710Z,23.90
2023-06-10T05:59:23.898Z,24.00
2023-06-10T06:01:00.018Z,24.03
2023-06-10T06:02:33.381Z,24.02
2023-06-10T06:04:15.175Z,23.88
2023-06-10T06:05:51.562Z,23.73
2023-06-10T06:07:32.528Z,23.55
2023-06-10T06:09:08.599Z,23.47
2023-06-10T06:10:41.953Z,23.42
2023-06-10T06:12:17.586Z,23.41
2023-06-10T06:13:57.318Z,23.45
2023-06-10T06:15:32.965Z,23.49
2023-06-10T06:17:08.114Z,23.62
2023-06-10T06:18:45.006Z,23.70
2023-06-10T06:20:29.637Z,23.54
2023-06-10T06:22:05.045Z,23.43
2023-06-10T06:23:49.798Z,23.36
2023-06-10T06:25:25.674Z,23.41
2023-06-10T06:26:58.950Z,23.52
2023-06-10T06:28:32.669Z,23.71
2023-06-10T06:30:07.484Z,23.73
2023-06-10T06:31:45.657Z,23.70
2023-06-10T06:33:19.955Z,23.60
2023-06-10T06:34:56.256Z,23.47
2023-06-10T06:36:32.697Z,23.37
2023-06-10T06:38:16.041Z,23.25
2023-06-10T06:39:49.780Z,23.14
2023-06-10T06:41:24.839Z,23.07
2023-06-10T06:43:00.637Z,22.97
2023-06-10T06:44:39.199Z,22.83
2023-06-10T06:46:13.781Z,22.76
2023-06-10T06:47:54.169Z,22.74
2023-06-10T06:49:28.338Z,22.80
2023-06-10T06:51:06.933Z,22.90
2023-06-10T06:52:43.199Z,22.90
2023-06-10T06:54:17.805Z,22.92
2023-06-10T06:55:53.452Z,22.92
2023-06-10T06:57:27.058Z,22.87
2023-06-10T06:59:01.539Z,22.83
2023-06-10T07:00:36.283Z,22.80
2023-06-10T07:02:09.893Z,22.83
2023-06-10T07:03:46.148Z,22.91
2023-06-10T07:05:24.967Z,22.93
2023-06-10T07:06:58.096Z,22.96
2023-06-10T07:08:32.711Z,23.00
2023-06-10T07:10:08.183Z,23.02
2023-06-10T07:11:42.427Z,22.98
2023-06-10T07:13:16.232Z,22.93
2023-06-10T07:14:49.700Z,22.90
2023-06-10T07:16:25.543Z,22.86
2023-06-10T07:18:04.296Z,22.79
2023-06-10T07:19:43.049Z,22.73
2023-06-10T07:21:20.987Z,22.71
2023-06-10T07:22:55.486Z,22.68
2023-06-10T07:24:30.670Z,22.70
2023-06-10T07:26:04.100Z,22.73
2023-06-10T07:27:50.827Z,22.69
2023-06-10T07:29:24.237Z,22.68
2023-06-10T07:30:59.646Z,22.68
2023-06-10T07:32:38.894Z,22.70
2023-06-10T07:34:12.118Z,22.70
2023-06-10T07:35:49.496Z,22.72
2023-06-10T07:37:31.025Z,22.55
2023-06-10T07:39:16.704Z,22.58
2023-06-10T07:40:58.546Z,22.55
2023-06-10T07:42:42.428Z,22.53
2023-06-10T07:44:20.834Z,22.51
2023-06-10T07:46:03.990Z,22.50
2023-06-10T07:47:49.067Z,22.58
2023-06-10T07:49:23.119Z,22.59
2023-06-10T07:50:56.612Z,22.61
2023-06-10T07:52:29.933Z,22.64
2023-06-10T07:54:03.233Z,22.65
2023-06-10T07:55:36.606Z,22.72
2023-06-10T07:57:09.778Z,22.87
2023-06-10T07:58:43.006Z,23.01
2023-06-10T08:00:16.849Z,23.14
2023-06-10T08:01:50.401Z,23.23
2023-06-10T08:03:23.865Z,23.33
2023-06-10T08:04:57.112Z,23.37
2023-06-10T08:06:30.959Z,23.36
2023-06-10T08:08:04.443Z,23.36
2023-06-10T08:09:38.312Z,23.44
2023-06-10T08:11:15.648Z,23.57
2023-06-10T08:12:49.835Z,23.71
2023-06-10T08:14:23.399Z,23.89
2023-06-10T08:15:56.986Z,23.94
2023-06-10T08:17:30.405Z,23.92
2023-06-10T08:19:04.005Z,23.92
2023-06-10T08:20:38.998Z,23.94
2023-06-10T08:22:12.200Z,24.05
2023-06-10T08:23:49.803Z,24.20
2023-06-10T08:25:26.529Z,24.41
2023-06-10T08:27:02.593Z,24.54
2023-06-10T08:28:37.184Z,24.60
2023-06-10T08:30:11.184Z,24.54
2023-06-10T08:31:46.043Z,24.58
2023-06-10T08:33:19.277Z,24.69
2023-06-10T08:34:53.326Z,24.82
2023-06-10T08:36:26.899Z,24.94
2023-06-10T08:38:00.103Z,24.98
2023-06-10T08:39:34.490Z,25.03
2023-06-10T08:41:10.763Z,25.20
2023-06-10T08:43:11.768Z,25.46
2023-06-10T08:44:47.546Z,25.70
2023-06-10T08:46:21.829Z,25.83
2023-06-10T08:47:58.914Z,25.98
2023-06-10T08:49:39.050Z,26.10
2023-06-10T08:51:13.248Z,26.13
2023-06-10T08:52:51.417Z,26.15
2023-06-10T08:54:31.246Z,26.18
2023-06-10T08:56:06.734Z,26.23
2023-06-10T08:57:42.377Z,26.25
2023-06-10T08:59:17.124Z,26.29
2023-06-10T09:00:51.771Z,26.34
2023-06-10T09:02:28.838Z,26.42
2023-06-10T09:04:04.138Z,26.58
2023-06-10T09:05:38.169Z,26.75
2023-06-10T09:07:12.930Z,26.88
2023-06-10T09:08:46.257Z,27.01
2023-06-10T09:10:20.284Z,27.12
2023-06-10T09:11:53.633Z,27.19
2023-06-10T09:13:27.282Z,27.24
2023-06-10T09:15:02.970Z,27.26
2023-06-10T09:16:39.320Z,27.24
2023-06-10T09:18:13.696Z,27.11
2023-06-10T09:19:49.172Z,27.08
2023-06-10T09:21:26.487Z,26.98
2023-06-10T09:23:02.465Z,26.80
2023-06-10T09:24:36.179Z,26.66
2023-06-10T09:26:12.482Z,26.62
2023-06-10T09:27:53.093Z,26.50
2023-06-10T09:29:26.734Z,26.44
2023-06-10T09:31:07.433Z,26.42
2023-06-10T09:32:41.273Z,26.29
2023-06-10T09:34:16.480Z,26.09
2023-06-10T09:35:51.180Z,25.97
2023-06-10T09:37:25.462Z,26.00
2023-06-10T09:38:59.324Z,26.03
2023-06-10T09:40:32.967Z,26.10
2023-06-10T09:42:20.245Z,26.19
2023-06-10T09:43:54.432Z,26.14
2023-06-10T09:45:34.330Z,26.15
2023-06-10T09:47:07.823Z,26.20
2023-06-10T09:48:49.017Z,26.31
2023-06-10T09:50:22.648Z,26.41
2023-06-10T09:51:56.947Z,26.55
2023-06-10T09:53:35.665Z,26.64
2023-06-10T09:55:10.870Z,26.76
2023-06-10T09:56:44.407Z,26.78
2023-06-10T09:58:17.728Z,26.82
2023-06-10T09:59:55.486Z,26.80
2023-06-10T10:01:29.646Z,26.71
2023-06-10T10:03:03.410Z,26.65
2023-06-10T10:04:37.726Z,26.51
2023-06-10T10:06:14.549Z,26.32
2023-06-10T10:07:48.486Z,26.04
2023-06-10T10:09:21.979Z,25.82
2023-06-10T10:10:58.991Z,25.73
2023-06-10T10:12:33.683Z,25.64
2023-06-10T10:14:10.709Z,25.61
2023-06-10T10:15:46.830Z,25.50
2023-06-10T10:17:22.502Z,25.43
2023-06-10T10:19:02.805Z,25.40
2023-06-10T10:20:46.700Z,25.38
2023-06-10T10:22:40.725Z,25.31
2023-06-10T10:24:31.813Z,25.23
2023-06-10T10:26:15.138Z,25.10
2023-06-10T10:28:07.518Z,25.09
2023-06-10T10:29:45.824Z,25.10
2023-06-10T10:31:26.871Z,25.14
2023-06-10T10:33:18.169Z,25.18
2023-06-10T10:35:18.684Z,25.10
2023-06-10T10:36:56.232Z,25.02
2023-06-10T10:38:31.664Z,25.00
2023-06-10T10:40:10.526Z,25.05
2023-06-10T10:41:45.423Z,25.09
2023-06-10T10:43:22.249Z,25.07
2023-06-10T10:44:56.648Z,25.14
2023-06-10T10:46:31.089Z,25.20
2023-06-10T10:48:10.725Z,25.28
2023-06-10T10:49:47.486Z,25.32
2023-06-10T10:51:21.109Z,25.31
2023-06-10T10:53:02.604Z,25.28
2023-06-10T10:54:37.788Z,25.27
2023-06-10T10:56:18.867Z,25.18
2023-06-10T10:57:59.576Z,25.12
2023-06-10T10:59:57.256Z,25.15
2023-06-10T11:01:46.741Z,25.12
2023-06-10T11:03:20.414Z,25.03
2023-06-10T11:04:58.907Z,25.02
2023-06-10T11:06:32.887Z,25.07
2023-06-10T11:08:07.151Z,25.01
2023-06-10T11:10:00.195Z,24.91
2023-06-10T11:11:52.034Z,24.98
2023-06-10T11:13:28.535Z,25.00
2023-06-10T11:15:01.711Z,25.02
2023-06-10T11:16:43.297Z,25.01
2023-06-10T11:18:26.044Z,25.02
2023-06-10T11:20:00.730Z,24.97
2023-06-10T11:21:58.355Z,24.93
2023-06-10T11:23:35.272Z,24.88
2023-06-10T11:25:15.679Z,24.86
2023-06-10T11:26:49.026Z,24.89
2023-06-10T11:28:28.982Z,24.94
2023-06-10T11:30:02.448Z,24.84
2023-06-10T11:31:52.808Z,24.84
2023-06-10T11:33:26.366Z,24.88
2023-06-10T11:34:59.933Z,24.93
2023-06-10T11:36:44.709Z,24.94
2023-06-10T11:38:20.594Z,24.95
2023-06-10T11:39:56.668Z,24.86
2023-06-10T11:41:31.451Z,24.85
2023-06-10T11:43:05.977Z,24.83
2023-06-10T11:44:39.359Z,24.80
2023-06-10T11:46:13.661Z,24.76
2023-06-10T11:48:03.159Z,24.74
2023-06-10T11:49:36.572Z,24.68
2023-06-10T11:51:10.259Z,24.62
2023-06-10T11:52:43.706Z,24.64
2023-06-10T11:54:16.876Z,24.63
2023-06-10T11:55:52.516Z,24.59
2023-06-10T11:57:26.003Z,24.50
2023-06-10T11:59:06.114Z,24.37
2023-06-10T12:00:53.888Z,24.21
2023-06-10T12:02:27.122Z,24.13
2023-06-10T12:04:02.669Z,24.13
2023-06-10T12:05:36.905Z,24.12
2023-06-10T12:07:17.873Z,24.12
2023-06-10T12:08:51.584Z,24.12
2023-06-10T12:10:27.587Z,24.13
2023-06-10T12:12:07.171Z,24.12
2023-06-10T12:13:51.066Z,24.17
2023-06-10T12:15:27.152Z,24.26
2023-06-10T12:17:00.707Z,24.30
2023-06-10T12:18:34.050Z,24.35
2023-06-10T12:20:27.102Z,24.41
2023-06-10T12:22:02.408Z,24.44
2023-06-10T12:23:35.698Z,24.50
2023-06-10T12:25:11.255Z,24.61
2023-06-10T12:26:46.226Z,24.75
2023-06-10T12:28:23.982Z,24.80
2023-06-10T12:30:02.020Z,24.92
2023-06-10T12:31:54.973Z,24.95
2023-06-10T12:33:28.156Z,24.96
2023-06-10T12:35:06.491Z,25.00
2023-06-10T12:36:55.359Z,25.09
2023-06-10T12:38:28.953Z,25.16
2023-06-10T12:40:11.470Z,25.18
2023-06-10T12:41:53.408Z,25.23
2023-06-10T12:43:27.543Z,25.20
2023-06-10T12:45:01.220Z,25.23
2023-06-10T12:46:41.145Z,25.31
2023-06-10T12:48:21.615Z,25.32
2023-06-10T12:49:55.435Z,25.33
2023-06-10T12:51:29.177Z,25.32
2023-06-10T12:53:06.856Z,25.31
2023-06-10T12:54:44.341Z,25.26
2023-06-10T12:56:18.064Z,25.23
2023-06-10T12:57:52.580Z,25.19
2023-06-10T12:59:27.580Z,25.12
2023-06-10T13:01:00.869Z,25.01
2023-06-10T13:02:34.380Z,24.91
2023-06-10T13:04:07.896Z,24.88
2023-06-10T13:05:42.054Z,24.83
2023-06-10T13:07:17.295Z,24.84
2023-06-10T13:08:50.801Z,24.86
2023-06-10T13:10:25.885Z,24.82
2023-06-10T13:12:03.023Z,24.80
2023-06-10T13:13:38.583Z,24.78
2023-06-10T13:15:12.431Z,24.73
2023-06-10T13:16:46.401Z,24.70
2023-06-10T13:18:25.365Z,24.62
2023-06-10T13:19:59.473Z,24.55
2023-06-10T13:21:35.145Z,24.51
2023-06-10T13:23:10.321Z,24.49
2023-06-10T13:24:47.060Z,24.47
2023-06-10T13:26:20.744Z,24.46
2023-06-10T13:27:55.944Z,24.52
2023-06-10T13:29:29.216Z,24.55
2023-06-10T13:31:07.796Z,24.63
2023-06-10T13:32:42.119Z,24.66
2023-06-10T13:34:17.709Z,24.72
2023-06-10T13:35:51.800Z,24.74
2023-06-10T13:37:26.201Z,24.75
2023-06-10T13:39:00.120Z,24.64
2023-06-10T13:40:33.454Z,24.58
2023-06-10T13:42:11.490Z,24.59
2023-06-10T13:43:46.556Z,24.60
2023-06-10T13:45:19.944Z,24.63
2023-06-10T13:46:53.489Z,24.68
2023-06-10T13:48:27.049Z,24.66
2023-06-10T13:50:03.589Z,24.65
2023-06-10T13:51:40.352Z,24.60
2023-06-10T13:53:15.743Z,24.49
2023-06-10T13:54:49.084Z,24.38
2023-06-10T13:56:23.787Z,24.26
2023-06-10T13:57:57.286Z,24.12
2023-06-10T13:59:30.697Z,24.10
2023-06-10T14:01:04.442Z,24.07
2023-06-10T14:02:38.710Z,24.11
2023-06-10T14:04:13.044Z,24.12
2023-06-10T14:05:46.873Z,24.13
2023-06-10T14:07:20.585Z,24.14
2023-06-10T14:08:53.682Z,24.16
2023-06-10T14:10:27.091Z,24.23
2023-06-10T14:12:00.429Z,24.23
2023-06-10T14:13:38.308Z,24.26
2023-06-10T14:15:14.989Z,24.27
2023-06-10T14:16:51.363Z,24.21
2023-06-10T14:18:28.148Z,24.18
2023-06-10T14:20:01.514Z,24.22
2023-06-10T14:21:35.272Z,24.25
2023-06-10T14:23:09.221Z,24.27
2023-06-10T14:24:42.626Z,24.34
2023-06-10T14:26:16.647Z,24.38
2023-06-10T14:27:50.235Z,24.37
2023-06-10T14:29:23.546Z,24.34
2023-06-10T14:30:58.326Z,24.32
2023-06-10T14:32:31.935Z,24.34
2023-06-10T14:34:05.873Z,24.31
2023-06-10T14:35:39.137Z,24.34
2023-06-10T14:37:12.667Z,24.37
2023-06-10T14:38:46.265Z,24.42
2023-06-10T14:40:19.610Z,24.40
2023-06-10T14:41:57.205Z,24.42
2023-06-10T14:43:30.760Z,24.42
2023-06-10T14:45:06.336Z,24.44
2023-06-10T14:46:41.282Z,24.45
2023-06-10T14:48:14.779Z,24.44
2023-06-10T14:49:48.312Z,24.47
2023-06-10T14:51:21.722Z,24.50
2023-06-10T14:52:55.105Z,24.48
2023-06-10T14:54:28.707Z,24.41
2023-06-10T14:56:06.223Z,24.35
2023-06-10T14:57:40.189Z,24.32
2023-06-10T14:59:13.442Z,24.26
2023-06-10T15:00:49.944Z,24.21
2023-06-10T15:02:24.320Z,24.16
2023-06-10T15:03:57.769Z,24.15
2023-06-10T15:05:30.984Z,24.11
2023-06-10T15:07:05.497Z,24.07
2023-06-10T15:08:38.723Z,24.07
2023-06-10T15:10:12.317Z,24.03
2023-06-10T15:11:45.817Z,24.09
2023-06-10T15:13:19.121Z,24.15
2023-06-10T15:14:52.590Z,24.26
2023-06-10T15:16:26.035Z,24.33
2023-06-10T15:18:00.455Z,24.37
2023-06-10T15:19:33.885Z,24.46
2023-06-10T15:21:07.699Z,24.53
2023-06-10T15:22:41.352Z,24.53
2023-06-10T15:24:15.076Z,24.54
2023-06-10T15:25:48.273Z,24.45
2023-06-10T15:27:25.273Z,24.42
2023-06-10T15:28:58.808Z,24.34
2023-06-10T15:30:32.622Z,24.31
2023-06-10T15:32:07.220Z,24.28
2023-06-10T15:33:41.492Z,24.22
2023-06-10T15:35:19.440Z,24.24
2023-06-10T15:36:53.208Z,24.26
2023-06-10T15:38:26.607Z,24.29
2023-06-10T15:40:04.355Z,24.30
2023-06-10T15:41:38.115Z,24.25
2023-06-10T15:43:11.586Z,24.20
2023-06-10T15:44:44.951Z,24.26
2023-06-10T15:46:18.557Z,24.32
2023-06-10T15:47:52.497Z,24.34
2023-06-10T15:49:30.364Z,24.35
2023-06-10T15:51:07.696Z,24.40
2023-06-10T15:52:44.254Z,24.42
2023-06-10T15:54:21.376Z,24.43
2023-06-10T15:55:58.350Z,24.47
2023-06-10T15:57:37.655Z,24.52
2023-06-10T15:59:17.100Z,24.53
2023-06-10T16:00:50.723Z,24.58
2023-06-10T16:02:24.179Z,24.64
2023-06-10T16:03:58.132Z,24.67
2023-06-10T16:05:33.284Z,24.67
2023-06-10T16:07:08.658Z,24.65
2023-06-10T16:08:45.123Z,24.66
2023-06-10T16:10:19.004Z,24.65
2023-06-10T16:11:53.829Z,24.71
2023-06-10T16:13:29.852Z,24.75
2023-06-10T16:15:06.043Z,24.68
2023-06-10T16:16:42.894Z,24.67
2023-06-10T16:18:21.151Z,24.62
2023-06-10T16:19:55.997Z,24.56
2023-06-10T16:21:37.916Z,24.51
2023-06-10T16:23:11.307Z,24.49
2023-06-10T16:24:46.492Z,24.51
2023-06-10T16:26:22.285Z,24.51
2023-06-10T16:27:55.658Z,24.54
2023-06-10T16:29:32.289Z,24.50
2023-06-10T16:31:05.652Z,24.47
2023-06-10T16:32:40.992Z,24.43
2023-06-10T16:34:17.583Z,24.35
2023-06-10T16:35:53.682Z,24.27
2023-06-10T16:37:27.852Z,24.14
2023-06-10T16:39:09.769Z,23.99
2023-06-10T16:40:43.290Z,23.92
2023-06-10T16:42:16.805Z,23.89
2023-06-10T16:43:50.849Z,23.93
2023-06-10T16:45:24.102Z,23.95
2023-06-10T16:47:01.102Z,23.94
2023-06-10T16:48:35.344Z,23.98
2023-06-10T16:50:11.960Z,24.00
2023-06-10T16:51:46.630Z,23.98
2023-06-10T16:53:21.358Z,23.92
2023-06-10T16:54:54.579Z,23.90
2023-06-10T16:56:31.455Z,23.91
2023-06-10T16:58:06.097Z,23.90
2023-06-10T16:59:42.875Z,23.90
2023-06-10T17:01:22.040Z,23.88
2023-06-10T17:02:56.991Z,23.86
2023-06-10T17:04:31.348Z,23.82
2023-06-10T17:06:04.971Z,23.74
2023-06-10T17:07:41.073Z,23.69
2023-06-10T17:09:14.787Z,23.62
2023-06-10T17:10:49.263Z,23.55
2023-06-10T17:12:25.857Z,23.47
2023-06-10T17:14:02.514Z,23.43
2023-06-10T17:15:44.791Z,23.32
2023-06-10T17:17:18.147Z,23.25
2023-06-10T17:18:54.195Z,23.16
2023-06-10T17:20:31.274Z,23.11
2023-06-10T17:22:05.976Z,23.03
2023-06-10T17:23:42.150Z,22.99
2023-06-10T17:25:15.462Z,22.89
2023-06-10T17:26:50.034Z,22.84
2023-06-10T17:28:24.631Z,22.80
2023-06-10T17:30:01.651Z,22.75
2023-06-10T17:31:38.996Z,22.70
2023-06-10T17:33:12.577Z,22.62
2023-06-10T17:34:52.329Z,22.56
2023-06-10T17:36:28.414Z,22.48
2023-06-10T17:38:06.678Z,22.43
2023-06-10T17:39:40.992Z,22.40
2023-06-10T17:41:14.315Z,22.36
2023-06-10T17:42:52.490Z,22.27
2023-06-10T17:44:29.976Z,22.24
2023-06-10T17:46:04.222Z,22.22
2023-06-10T17:47:39.368Z,22.20
2023-06-10T17:49:13.035Z,22.16
2023-06-10T17:50:47.009Z,22.14
2023-06-10T17:52:21.224Z,22.11
2023-06-10T17:53:54.714Z,22.03
2023-06-10T17:55:28.192Z,22.02
2023-06-10T17:57:01.608Z,22.02
2023-06-10T17:58:34.825Z,21.99
2023-06-10T18:00:10.103Z,21.93
2023-06-10T18:01:43.495Z,21.94
2023-06-10T18:03:23.102Z,21.90
2023-06-10T18:04:57.413Z,21.83
2023-06-10T18:06:37.767Z,21.81
2023-06-10T18:08:14.408Z,21.78
2023-06-10T18:09:48.817Z,21.78
2023-06-10T18:11:26.897Z,21.77
2023-06-10T18:13:00.679Z,21.74
2023-06-10T18:14:36.957Z,21.74
2023-06-10T18:16:10.924Z,21.72
2023-06-10T18:17:44.886Z,21.70
2023-06-10T18:19:19.495Z,21.66
2023-06-10T18:21:01.192Z,21.67
2023-06-10T18:22:37.062Z,21.63
2023-06-10T18:24:23.955Z,21.61
2023-06-10T18:25:59.478Z,21.59
2023-06-10T18:27:37.103Z,21.53
2023-06-10T18:29:11.672Z,21.51
2023-06-10T18:30:51.048Z,21.51
2023-06-10T18:32:26.762Z,21.51
2023-06-10T18:34:04.472Z,21.51
2023-06-10T18:35:43.964Z,21.50
2023-06-10T18:37:18.053Z,21.48
2023-06-10T18:38:54.652Z,21.48
2023-06-10T18:40:31.764Z,21.45
2023-06-10T18:42:11.897Z,21.41
2023-06-10T18:43:45.489Z,21.36
2023-06-10T18:45:23.548Z,21.31
2023-06-10T18:46:59.348Z,21.28
2023-06-10T18:48:33.608Z,21.30
2023-06-10T18:50:11.117Z,21.28
2023-06-10T18:51:44.526Z,21.25
2023-06-10T18:53:20.723Z,21.21
2023-06-10T18:54:57.391Z,21.21
2023-06-10T18:56:31.100Z,21.21
2023-06-10T18:58:05.533Z,21.21
2023-06-10T18:59:43.872Z,21.19
2023-06-10T19:01:18.050Z,21.18
2023-06-10T19:02:53.180Z,21.17
2023-06-10T19:04:29.364Z,21.15
2023-06-10T19:06:02.576Z,21.13
2023-06-10T19:07:36.698Z,21.12
2023-06-10T19:09:10.229Z,21.08
2023-06-10T19:10:46.389Z,21.06
2023-06-10T19:12:21.827Z,21.04
2023-06-10T19:13:54.936Z,21.02
2023-06-10T19:15:30.607Z,21.00
2023-06-10T19:17:07.439Z,20.98
2023-06-10T19:18:41.162Z,20.98
2023-06-10T19:20:14.773Z,20.97
2023-06-10T19:21:48.642Z,20.94
2023-06-10T19:23:23.028Z,20.91
2023-06-10T19:25:07.349Z,20.89
2023-06-10T19:26:42.895Z,20.87
2023-06-10T19:28:16.671Z,20.85
2023-06-10T19:29:56.107Z,20.84
2023-06-10T19:31:35.944Z,20.82
2023-06-10T19:33:11.909Z,20.81
2023-06-10T19:34:50.498Z,20.81
2023-06-10T19:36:24.801Z,20.79
2023-06-10T19:37:58.356Z,20.79
2023-06-10T19:39:33.050Z,20.79
2023-06-10T19:41:06.162Z,20.78
2023-06-10T19:42:40.571Z,20.74
2023-06-10T19:44:15.177Z,20.74
2023-06-10T19:45:48.908Z,20.73
2023-06-10T19:47:24.131Z,20.72
2023-06-10T19:48:57.498Z,20.69
2023-06-10T19:50:31.686Z,20.68
2023-06-10T19:52:08.163Z,20.67
2023-06-10T19:53:41.653Z,20.65
2023-06-10T19:55:20.829Z,20.64
2023-06-10T19:56:54.386Z,20.62
2023-06-10T19:58:27.815Z,20.60
2023-06-10T20:00:01.278Z,20.58
2023-06-10T20:01:37.746Z,20.57
2023-06-10T20:03:12.638Z,20.56
2023-06-10T20:04:46.102Z,20.55
2023-06-10T20:06:19.343Z,20.54
2023-06-10T20:07:52.872Z,20.52
2023-06-10T20:09:28.994Z,20.52
2023-06-10T20:11:04.896Z,20.48
2023-06-10T20:12:38.169Z,20.46
2023-06-10T20:14:11.955Z,20.42
2023-06-10T20:15:45.947Z,20.38
2023-06-10T20:17:19.923Z,20.37
2023-06-10T20:18:53.422Z,20.36
2023-06-10T20:20:26.998Z,20.34
2023-06-10T20:22:00.410Z,20.32
2023-06-10T20:23:38.934Z,20.31
2023-06-10T20:25:15.276Z,20.25
2023-06-10T20:26:49.204Z,20.24
2023-06-10T20:28:22.678Z,20.25
2023-06-10T20:29:57.426Z,20.24
2023-06-10T20:31:31.610Z,20.26
2023-06-10T20:33:07.136Z,20.28
2023-06-10T20:34:43.751Z,20.29
2023-06-10T20:36:22.408Z,20.30
2023-06-10T20:37:56.245Z,20.30
2023-06-10T20:39:29.658Z,20.31